createdAt,value
2018-04-27T00:01:05.285Z,56.60
2018-04-27T00:03:35.225Z,56.58
2018-04-27T00:06:04.750Z,55.81
2018-04-27T00:08:34.261Z,55.21
2018-04-27T00:11:03.781Z,54.95
2018-04-27T00:13:33.127Z,54.87
2018-04-27T00:16:03.060Z,55.47
2018-04-27T00:18:32.591Z,55.94
2018-04-27T00:21:02.092Z,56.14
2018-04-27T00:23:31.623Z,55.48
2018-04-27T00:26:01.147Z,56.54
2018-04-27T00:28:30.658Z,56.13
2018-04-27T00:31:00.148Z,57.03
2018-04-27T00:33:29.437Z,56.12
2018-04-27T00:35:58.953Z,56.63
2018-04-27T00:38:28.480Z,56.79
2018-04-27T00:40:58.439Z,55.35
2018-04-27T00:43:27.955Z,56.78
2018-04-27T00:45:57.475Z,57.66
2018-04-27T00:48:26.975Z,57.42
2018-04-27T00:50:56.476Z,58.61
2018-04-27T00:53:25.985Z,58.40
2018-04-27T00:55:55.487Z,58.41
2018-04-27T00:58:25.022Z,57.80
2018-04-27T01:00:54.704Z,57.41
2018-04-27T01:03:24.244Z,57.13
2018-04-27T01:05:53.772Z,56.72
2018-04-27T01:08:23.666Z,55.89
2018-04-27T01:10:53.204Z,56.36
2018-04-27T01:13:22.709Z,57.19
2018-04-27T01:15:52.203Z,57.10
2018-04-27T01:18:22.099Z,57.59
2018-04-27T01:20:50.717Z,57.55
2018-04-27T01:23:20.246Z,57.25
2018-04-27T01:25:50.017Z,57.02
2018-04-27T01:28:19.929Z,57.22
2018-04-27T01:30:49.858Z,57.60
2018-04-27T01:33:19.773Z,57.48
2018-04-27T01:35:49.305Z,57.25
2018-04-27T01:38:18.836Z,57.10
2018-04-27T01:40:48.357Z,57.33
2018-04-27T01:43:17.899Z,56.80
2018-04-27T01:45:47.804Z,57.41
2018-04-27T01:48:17.717Z,57.73
2018-04-27T01:50:47.623Z,57.41
2018-04-27T01:53:17.152Z,57.12
2018-04-27T01:55:47.363Z,57.80
2018-04-27T01:58:17.287Z,58.33
2018-04-27T02:00:47.197Z,58.37
2018-04-27T02:03:17.100Z,58.62
2018-04-27T02:05:46.609Z,58.84
2018-04-27T02:08:16.512Z,58.11
2018-04-27T02:10:45.797Z,58.07
2018-04-27T02:13:15.270Z,57.03
2018-04-27T02:15:44.779Z,57.74
2018-04-27T02:18:14.290Z,58.02
2018-04-27T02:20:43.801Z,58.25
2018-04-27T02:23:13.316Z,58.13
2018-04-27T02:25:42.809Z,57.65
2018-04-27T02:28:12.581Z,57.99
2018-04-27T02:30:42.503Z,58.82
2018-04-27T02:33:12.018Z,59.18
2018-04-27T02:35:41.519Z,58.93
2018-04-27T02:38:11.065Z,59.39
2018-04-27T02:40:41.029Z,60.13
2018-04-27T02:43:10.943Z,59.43
2018-04-27T02:45:40.863Z,59.79
2018-04-27T02:48:10.769Z,60.32
2018-04-27T02:50:40.871Z,60.81
2018-04-27T02:53:10.375Z,60.44
2018-04-27T02:55:39.883Z,60.29
2018-04-27T02:58:09.417Z,60.55
2018-04-27T03:00:38.941Z,61.39
2018-04-27T03:03:08.461Z,62.41
2018-04-27T03:05:37.990Z,62.61
2018-04-27T03:08:07.907Z,62.69
2018-04-27T03:10:37.407Z,62.60
2018-04-27T03:13:06.899Z,62.62
2018-04-27T03:15:36.426Z,62.99
2018-04-27T03:18:05.954Z,62.49
2018-04-27T03:20:35.855Z,62.96
2018-04-27T03:23:05.353Z,63.94
2018-04-27T03:25:34.853Z,64.00
2018-04-27T03:28:04.724Z,63.93
2018-04-27T03:30:34.236Z,65.20
2018-04-27T03:33:03.723Z,65.36
2018-04-27T03:35:33.224Z,65.41
2018-04-27T03:38:03.330Z,64.80
2018-04-27T03:40:33.256Z,64.10
2018-04-27T03:43:03.165Z,64.47
2018-04-27T03:45:33.063Z,65.40
2018-04-27T03:48:02.572Z,66.06
2018-04-27T03:50:32.519Z,65.80
2018-04-27T03:53:02.031Z,66.60
2018-04-27T03:55:31.543Z,66.31
2018-04-27T03:58:01.039Z,66.70
2018-04-27T04:00:47.364Z,66.36
2018-04-27T04:06:27.791Z,68.02
2018-04-27T04:08:57.279Z,68.82
2018-04-27T04:11:26.793Z,68.64
2018-04-27T04:13:56.307Z,69.10
2018-04-27T04:16:25.793Z,70.08
2018-04-27T04:18:55.309Z,70.59
2018-04-27T04:21:24.831Z,71.72
2018-04-27T04:23:54.736Z,71.82
2018-04-27T04:26:24.654Z,72.12
2018-04-27T04:28:54.165Z,72.04
2018-04-27T04:31:24.085Z,72.01
2018-04-27T04:33:53.989Z,72.34
2018-04-27T04:36:23.497Z,72.28
2018-04-27T04:38:52.999Z,72.54
2018-04-27T04:41:22.501Z,72.94
2018-04-27T04:43:51.994Z,72.94
2018-04-27T04:46:21.525Z,73.14
2018-04-27T04:48:51.454Z,73.11
2018-04-27T04:51:21.380Z,72.88
2018-04-27T04:53:50.890Z,72.16
2018-04-27T04:56:20.371Z,71.56
2018-04-27T04:58:50.293Z,71.84
2018-04-27T05:01:20.205Z,72.64
2018-04-27T05:03:49.884Z,72.64
2018-04-27T05:06:19.199Z,72.06
2018-04-27T05:08:48.705Z,71.74
2018-04-27T05:11:18.273Z,69.84
2018-04-27T05:13:47.781Z,66.10
2018-04-27T05:16:17.060Z,62.86
2018-04-27T05:18:57.457Z,57.95
2018-04-27T05:21:26.964Z,53.46
2018-04-27T05:23:56.493Z,50.69
2018-04-27T05:26:26.039Z,47.65
2018-04-27T05:28:55.540Z,45.10
2018-04-27T05:31:25.540Z,44.77
2018-04-27T05:33:55.322Z,44.14
2018-04-27T05:36:24.494Z,43.16
2018-04-27T05:38:54.019Z,45.26
2018-04-27T05:41:22.856Z,44.88
2018-04-27T05:43:52.027Z,44.14
2018-04-27T05:46:21.370Z,42.40
2018-04-27T05:48:50.242Z,42.08
2018-04-27T05:51:19.672Z,42.22
2018-04-27T05:53:48.548Z,43.82
2018-04-27T05:56:17.222Z,43.69
2018-04-27T05:58:47.203Z,44.03
2018-04-27T06:01:16.896Z,43.61
2018-04-27T06:04:03.373Z,43.99
2018-04-27T06:06:32.892Z,46.00
2018-04-27T06:09:02.407Z,45.90
2018-04-27T06:11:31.929Z,44.18
2018-04-27T06:14:01.110Z,45.11
2018-04-27T06:16:30.604Z,47.41
2018-04-27T06:19:00.117Z,48.21
2018-04-27T06:21:29.882Z,49.36
2018-04-27T06:23:59.836Z,51.94
2018-04-27T06:26:29.134Z,53.75
2018-04-27T06:28:58.643Z,55.18
2018-04-27T06:31:28.774Z,57.63
2018-04-27T06:33:58.276Z,58.38
2018-04-27T06:36:27.787Z,56.37
2018-04-27T06:38:57.366Z,57.38
2018-04-27T06:41:26.882Z,56.96
2018-04-27T06:43:56.084Z,58.21
2018-04-27T06:46:24.990Z,57.19
2018-04-27T06:48:54.500Z,59.69
2018-04-27T06:51:23.536Z,59.93
2018-04-27T06:53:53.040Z,61.84
2018-04-27T06:56:22.258Z,63.04
2018-04-27T06:58:50.875Z,63.35
2018-04-27T07:02:08.209Z,62.14
2018-04-27T07:04:37.159Z,63.15
2018-04-27T07:07:06.350Z,62.82
2018-04-27T07:09:35.560Z,61.74
2018-04-27T07:12:04.730Z,61.11
2018-04-27T07:14:33.571Z,60.32
2018-04-27T07:17:03.175Z,61.20
2018-04-27T07:19:32.843Z,60.12
2018-04-27T07:22:02.764Z,60.80
2018-04-27T07:24:32.819Z,61.76
2018-04-27T07:27:02.583Z,62.32
2018-04-27T07:29:32.541Z,62.29
2018-04-27T07:32:02.189Z,62.58
2018-04-27T07:34:31.146Z,62.68
2018-04-27T07:37:00.035Z,61.75
2018-04-27T07:39:29.219Z,61.70
2018-04-27T07:41:58.391Z,62.11
2018-04-27T07:44:27.657Z,61.61
2018-04-27T07:46:56.805Z,61.93
2018-04-27T07:49:26.050Z,61.56
2018-04-27T07:51:55.327Z,61.17
2018-04-27T07:54:24.654Z,60.36
2018-04-27T07:56:53.826Z,60.35
2018-04-27T07:59:22.743Z,60.60
2018-04-27T08:01:51.616Z,59.06
2018-04-27T08:04:20.442Z,59.58
2018-04-27T08:06:49.698Z,57.98
2018-04-27T08:09:19.465Z,58.77
2018-04-27T08:11:48.324Z,58.70
2018-04-27T08:14:17.551Z,57.23
2018-04-27T08:16:46.387Z,54.84
2018-04-27T08:19:15.280Z,54.37
2018-04-27T08:21:44.154Z,55.23
2018-04-27T08:24:12.992Z,55.16
2018-04-27T08:26:41.824Z,54.63
2018-04-27T08:29:11.116Z,55.71
2018-04-27T08:31:40.370Z,55.25
2018-04-27T08:34:09.596Z,54.87
2018-04-27T08:36:39.432Z,55.02
2018-04-27T08:39:09.356Z,54.52
2018-04-27T08:41:39.634Z,55.20
2018-04-27T08:44:09.861Z,54.53
2018-04-27T08:46:39.405Z,53.40
2018-04-27T08:49:09.339Z,52.71
2018-04-27T08:51:38.200Z,52.41
2018-04-27T08:54:07.931Z,52.96
2018-04-27T08:56:36.833Z,53.01
2018-04-27T08:59:05.443Z,52.78
2018-04-27T09:01:34.970Z,52.60
2018-04-27T09:04:04.160Z,52.39
2018-04-27T09:06:33.684Z,52.76
2018-04-27T09:09:02.990Z,51.42
2018-04-27T09:11:32.523Z,51.82
2018-04-27T09:14:02.052Z,52.33
2018-04-27T09:16:31.581Z,50.76
2018-04-27T09:19:00.368Z,50.94
2018-04-27T09:21:29.875Z,49.45
2018-04-27T09:23:59.073Z,50.13
2018-04-27T09:26:28.615Z,49.76
2018-04-27T09:28:58.140Z,48.84
2018-04-27T09:31:28.038Z,50.05
2018-04-27T09:33:57.946Z,50.06
2018-04-27T09:36:27.460Z,49.74
2018-04-27T09:38:57.406Z,49.70
2018-04-27T09:41:26.249Z,49.60
2018-04-27T09:43:55.108Z,48.48
2018-04-27T09:46:24.198Z,49.57
2018-04-27T09:48:53.061Z,49.34
2018-04-27T09:51:22.310Z,49.54
2018-04-27T09:53:51.839Z,48.15
2018-04-27T09:56:21.355Z,47.87
2018-04-27T09:58:51.283Z,46.78
2018-04-27T10:01:20.790Z,47.07
2018-04-27T10:03:50.693Z,47.38
2018-04-27T10:06:19.956Z,46.89
2018-04-27T10:08:49.467Z,47.46
2018-04-27T10:11:19.019Z,48.13
2018-04-27T10:13:48.519Z,46.71
2018-04-27T10:16:18.434Z,46.65
2018-04-27T10:18:48.322Z,45.33
2018-04-27T10:21:17.840Z,44.49
2018-04-27T10:23:47.349Z,43.05
2018-04-27T10:26:22.195Z,45.22
2018-04-27T10:28:52.101Z,44.41
2018-04-27T10:31:22.052Z,44.76
2018-04-27T10:33:51.578Z,43.67
2018-04-27T10:36:21.082Z,44.32
2018-04-27T10:38:50.643Z,42.82
2018-04-27T10:41:20.556Z,43.16
2018-04-27T10:43:50.458Z,41.77
2018-04-27T10:46:20.153Z,40.98
2018-04-27T10:48:48.978Z,40.65
2018-04-27T10:51:18.091Z,40.67
2018-04-27T10:53:46.719Z,41.18
2018-04-27T10:56:15.578Z,40.39
2018-04-27T10:58:44.456Z,39.38
2018-04-27T11:01:13.060Z,40.09
2018-04-27T11:03:41.906Z,40.72
2018-04-27T11:06:10.992Z,40.60
2018-04-27T11:08:40.322Z,39.93
2018-04-27T11:11:09.769Z,39.56
2018-04-27T11:13:38.449Z,39.58
2018-04-27T11:16:07.610Z,39.77
2018-04-27T11:18:36.446Z,39.74
2018-04-27T11:21:05.268Z,40.56
2018-04-27T11:23:34.514Z,38.28
2018-04-27T11:26:03.443Z,38.38
2018-04-27T11:28:33.186Z,38.94
2018-04-27T11:31:03.313Z,37.93
2018-04-27T11:33:33.716Z,38.65
2018-04-27T11:36:02.958Z,38.22
2018-04-27T11:38:32.776Z,38.89
2018-04-27T11:41:02.498Z,37.95
2018-04-27T11:43:32.044Z,37.80
2018-04-27T11:46:01.286Z,36.74
2018-04-27T11:48:29.905Z,35.48
2018-04-27T11:50:58.798Z,36.06
2018-04-27T11:53:28.053Z,37.22
2018-04-27T11:55:56.918Z,35.28
2018-04-27T11:58:27.304Z,33.82
2018-04-27T12:00:56.469Z,34.02
2018-04-27T12:03:25.319Z,36.10
2018-04-27T12:05:54.306Z,36.12
2018-04-27T12:08:23.772Z,35.26
2018-04-27T12:10:53.213Z,35.41
2018-04-27T12:13:22.472Z,37.11
2018-04-27T12:15:51.846Z,36.00
2018-04-27T12:18:20.700Z,34.95
2018-04-27T12:20:50.790Z,34.80
2018-04-27T12:23:20.853Z,33.93
2018-04-27T12:25:50.279Z,34.17
2018-04-27T12:29:07.913Z,33.06
2018-04-27T12:31:38.124Z,33.31
2018-04-27T12:34:08.246Z,33.26
2018-04-27T12:36:37.656Z,31.88
2018-04-27T12:39:07.098Z,32.27
2018-04-27T12:41:37.650Z,32.48
2018-04-27T12:44:07.405Z,34.06
2018-04-27T12:46:38.015Z,33.40
2018-04-27T12:49:07.423Z,33.70
2018-04-27T12:51:36.818Z,32.68
2018-04-27T12:54:05.986Z,32.21
2018-04-27T12:56:35.743Z,30.66
2018-04-27T12:59:05.880Z,31.08
2018-04-27T13:01:36.672Z,31.75
2018-04-27T13:04:06.742Z,30.29
2018-04-27T13:06:36.858Z,30.62
2018-04-27T13:09:06.332Z,31.67
2018-04-27T13:11:36.896Z,31.47
2018-04-27T13:14:06.332Z,31.05
2018-04-27T13:16:36.468Z,29.86
2018-04-27T13:19:06.031Z,28.50
2018-04-27T13:21:36.224Z,28.73
2018-04-27T13:24:05.979Z,29.02
2018-04-27T13:26:36.085Z,30.41
2018-04-27T13:29:06.920Z,29.85
2018-04-27T13:31:37.014Z,28.04
2018-04-27T13:34:07.331Z,28.33
2018-04-27T13:36:37.159Z,27.54
2018-04-27T13:39:06.338Z,27.76
2018-04-27T13:41:36.422Z,28.82
2018-04-27T13:44:07.044Z,27.25
2018-04-27T13:46:37.972Z,27.58
2018-04-27T13:49:08.033Z,28.26
2018-04-27T13:51:37.426Z,28.26
2018-04-27T13:54:07.232Z,27.83
2018-04-27T13:56:37.378Z,26.46
2018-04-27T13:59:07.116Z,27.25
2018-04-27T14:01:36.520Z,27.71
2018-04-27T14:04:05.920Z,25.41
2018-04-27T14:06:35.351Z,27.47
2018-04-27T14:09:04.918Z,26.54
2018-04-27T14:11:34.363Z,25.82
2018-04-27T14:14:03.773Z,26.26
2018-04-27T14:16:33.697Z,26.17
2018-04-27T14:19:03.307Z,26.88
2018-04-27T14:21:33.124Z,26.86
2018-04-27T14:24:03.150Z,27.58
2018-04-27T14:26:33.219Z,27.25
2018-04-27T14:29:03.213Z,26.83
2018-04-27T14:31:33.310Z,28.43
2018-04-27T14:34:03.380Z,27.35
2018-04-27T14:36:33.485Z,26.92
2018-04-27T14:39:03.111Z,27.96
2018-04-27T14:41:33.187Z,27.42
2018-04-27T14:44:03.252Z,28.84
2018-04-27T14:46:33.382Z,28.59
2018-04-27T14:49:03.650Z,27.51
2018-04-27T14:51:33.742Z,27.37
2018-04-27T14:54:04.503Z,28.44
2018-04-27T14:56:33.712Z,28.54
2018-04-27T14:59:02.902Z,27.83
2018-04-27T15:01:32.310Z,27.62
2018-04-27T15:04:02.099Z,27.65
2018-04-27T15:06:31.854Z,27.68
2018-04-27T15:09:01.908Z,27.16
2018-04-27T15:11:31.718Z,28.10
2018-04-27T15:14:01.114Z,28.84
2018-04-27T15:16:31.242Z,27.18
2018-04-27T15:19:01.324Z,27.76
2018-04-27T15:21:31.086Z,28.37
2018-04-27T15:24:01.260Z,27.93
2018-04-27T15:26:30.671Z,27.91
2018-04-27T15:29:02.336Z,28.79
2018-04-27T15:31:32.568Z,27.81
2018-04-27T15:34:02.658Z,27.67
2018-04-27T15:36:32.080Z,28.31
2018-04-27T15:39:01.506Z,28.54
2018-04-27T15:41:31.317Z,28.94
2018-04-27T15:44:01.392Z,27.93
2018-04-27T15:46:31.446Z,28.08
2018-04-27T15:49:00.856Z,28.85
2018-04-27T15:51:30.924Z,28.60
2018-04-27T15:54:00.328Z,28.41
2018-04-27T15:56:29.766Z,28.13
2018-04-27T15:58:59.841Z,28.92
2018-04-27T16:01:29.010Z,27.81
2018-04-27T16:03:58.870Z,27.71
2018-04-27T16:06:28.583Z,28.86
2018-04-27T16:08:58.023Z,28.83
2018-04-27T16:11:28.107Z,27.91
2018-04-27T16:13:58.970Z,27.80
2018-04-27T16:16:29.690Z,27.64
2018-04-27T16:19:00.774Z,28.21
2018-04-27T16:21:30.349Z,28.22
2018-04-27T16:24:00.567Z,27.98
2018-04-27T16:26:30.512Z,28.47
2018-04-27T16:29:00.062Z,28.49
2018-04-27T16:31:29.466Z,28.97
2018-04-27T16:33:59.062Z,29.49
2018-04-27T16:36:28.503Z,29.21
2018-04-27T16:38:57.903Z,30.46
2018-04-27T16:41:27.669Z,29.64
2018-04-27T16:43:57.402Z,29.51
2018-04-27T16:46:27.480Z,29.46
2018-04-27T16:48:57.966Z,29.45
2018-04-27T16:51:27.692Z,30.12
2018-04-27T16:53:57.756Z,29.92
2018-04-27T16:56:27.160Z,30.29
2018-04-27T16:58:56.562Z,30.44
2018-04-27T17:01:25.970Z,30.12
2018-04-27T17:03:55.401Z,30.30
2018-04-27T17:06:24.819Z,30.42
2018-04-27T17:08:54.212Z,30.32
2018-04-27T17:11:23.624Z,30.99
2018-04-27T17:13:53.044Z,29.79
2018-04-27T17:16:22.779Z,29.88
2018-04-27T17:18:52.591Z,30.92
2018-04-27T17:21:22.379Z,31.22
2018-04-27T17:23:51.784Z,31.76
2018-04-27T17:26:21.200Z,31.81
2018-04-27T17:28:51.045Z,31.79
2018-04-27T17:31:20.938Z,31.48
2018-04-27T17:33:50.736Z,32.27
2018-04-27T17:36:20.150Z,32.09
2018-04-27T17:38:49.593Z,32.58
2018-04-27T17:41:19.590Z,33.58
2018-04-27T17:43:49.017Z,33.93
2018-04-27T17:46:18.423Z,33.36
2018-04-27T17:48:47.886Z,33.51
2018-04-27T17:51:18.138Z,35.00
2018-04-27T17:53:48.248Z,34.72
2018-04-27T17:56:17.642Z,34.70
2018-04-27T17:58:47.729Z,34.09
2018-04-27T18:01:17.484Z,35.96
2018-04-27T18:03:47.569Z,34.73
2018-04-27T18:06:17.575Z,35.11
2018-04-27T18:08:47.307Z,35.09
2018-04-27T18:11:17.811Z,35.28
2018-04-27T18:13:47.550Z,35.58
2018-04-27T18:16:17.598Z,35.98
2018-04-27T18:18:47.033Z,36.06
2018-04-27T18:21:16.205Z,36.65
2018-04-27T18:23:45.739Z,37.10
2018-04-27T18:26:15.472Z,37.26
2018-04-27T18:28:44.883Z,37.47
2018-04-27T18:31:17.519Z,37.77
2018-04-27T18:33:47.635Z,37.95
2018-04-27T18:36:17.955Z,38.39
2018-04-27T18:38:47.401Z,38.39
2018-04-27T18:41:16.795Z,38.45
2018-04-27T18:43:45.445Z,38.41
2018-04-27T18:46:14.203Z,38.59
2018-04-27T18:48:43.383Z,38.21
2018-04-27T18:51:17.231Z,38.46
2018-04-27T18:53:46.643Z,38.73
2018-04-27T18:56:26.017Z,38.92
2018-04-27T18:58:57.147Z,38.51
2018-04-27T19:01:26.687Z,38.56
2018-04-27T19:03:55.617Z,38.66
2018-04-27T19:06:25.771Z,39.22
2018-04-27T19:08:54.755Z,39.74
2018-04-27T19:11:23.753Z,40.14
2018-04-27T19:13:52.607Z,40.72
2018-04-27T19:17:06.547Z,40.83
2018-04-27T19:19:35.589Z,40.56
2018-04-27T19:22:06.807Z,40.28
2018-04-27T19:24:44.254Z,40.83
2018-04-27T19:27:13.093Z,40.28
2018-04-27T19:29:42.333Z,40.23
2018-04-27T19:32:11.203Z,40.57
2018-04-27T19:34:40.086Z,40.86
2018-04-27T19:37:08.927Z,40.95
2018-04-27T19:39:37.893Z,40.96
2018-04-27T19:42:06.763Z,40.88
2018-04-27T19:44:37.435Z,41.14
2018-04-27T19:47:06.327Z,41.92
2018-04-27T19:49:35.221Z,42.24
2018-04-27T19:52:04.928Z,43.08
2018-04-27T19:54:33.823Z,42.62
2018-04-27T19:57:02.671Z,42.82
2018-04-27T19:59:31.537Z,43.17
2018-04-27T20:03:04.091Z,43.73
2018-04-27T20:05:32.737Z,44.05
2018-04-27T20:08:02.313Z,44.00
2018-04-27T20:10:34.340Z,44.36
2018-04-27T20:13:03.110Z,44.67
2018-04-27T20:15:40.062Z,44.69
2018-04-27T20:18:21.981Z,44.64
2018-04-27T20:20:53.329Z,44.70
2018-04-27T20:23:23.636Z,44.48
2018-04-27T20:25:55.981Z,44.20
2018-04-27T20:28:29.605Z,44.38
2018-04-27T20:31:00.769Z,44.11
2018-04-27T20:33:29.391Z,43.46
2018-04-27T20:35:58.648Z,44.16
2018-04-27T20:38:32.045Z,42.36
2018-04-27T20:41:13.348Z,43.74
2018-04-27T20:43:43.878Z,44.01
2018-04-27T20:46:12.959Z,43.89
2018-04-27T20:48:41.806Z,43.87
2018-04-27T20:51:10.667Z,43.78
2018-04-27T20:53:57.892Z,42.73
2018-04-27T21:00:02.682Z,43.17
2018-04-27T21:17:36.946Z,44.58
2018-04-27T21:20:05.879Z,43.37
2018-04-27T21:22:34.520Z,42.82
2018-04-27T21:25:03.421Z,41.79
2018-04-27T21:27:37.577Z,41.45
2018-04-27T21:30:06.311Z,40.59
2018-04-27T21:32:35.083Z,40.90
2018-04-27T21:35:04.307Z,40.49
2018-04-27T21:37:32.987Z,41.11
2018-04-27T21:40:01.724Z,41.69
2018-04-27T21:42:30.869Z,42.61
2018-04-27T21:44:59.767Z,43.29
2018-04-27T21:47:46.920Z,44.02
2018-04-27T21:50:17.229Z,44.32
2018-04-27T21:52:48.316Z,43.37
2018-04-27T21:55:17.662Z,44.16
2018-04-27T22:00:43.977Z,44.62
2018-04-27T22:03:15.821Z,44.33
2018-04-27T22:05:44.534Z,44.04
2018-04-27T22:11:36.919Z,45.02
2018-04-27T22:14:05.579Z,44.31
2018-04-27T22:19:54.105Z,43.90
2018-04-27T22:22:23.013Z,44.59
2018-04-27T22:25:16.187Z,44.22
2018-04-27T22:27:46.004Z,43.20
2018-04-27T22:30:25.241Z,44.06
2018-04-27T22:32:54.779Z,44.42
2018-04-27T22:35:32.763Z,45.10
2018-04-27T22:38:01.635Z,44.55
2018-04-27T22:40:35.490Z,44.94
2018-04-27T22:43:13.031Z,44.17
2018-04-27T22:45:45.634Z,44.77
2018-04-27T22:51:24.915Z,45.12
2018-04-27T22:53:53.564Z,44.60
2018-04-27T22:56:23.561Z,44.60
2018-04-27T22:58:52.200Z,44.27
2018-04-27T23:01:21.117Z,45.18
2018-04-27T23:03:49.792Z,45.76
2018-04-27T23:06:18.797Z,45.10
2018-04-27T23:08:50.420Z,44.94
2018-04-27T23:11:25.183Z,45.41
2018-04-27T23:14:08.541Z,45.76
2018-04-27T23:16:37.566Z,46.67
2018-04-27T23:19:08.050Z,46.22
2018-04-27T23:21:58.165Z,46.85
2018-04-27T23:24:27.305Z,47.48
2018-04-27T23:27:07.100Z,47.43
2018-04-27T23:29:36.431Z,47.36
2018-04-27T23:32:05.317Z,47.54
2018-04-27T23:34:34.237Z,47.38
2018-04-27T23:37:02.919Z,45.82
2018-04-27T23:39:31.811Z,44.84
2018-04-27T23:42:00.774Z,45.18
2018-04-27T23:44:31.305Z,45.40
2018-04-27T23:47:00.227Z,45.57
2018-04-27T23:49:29.239Z,45.33
2018-04-27T23:51:58.753Z,45.74
2018-04-27T23:54:27.477Z,46.21
2018-04-27T23:57:02.831Z,45.76
2018-04-27T23:59:35.083Z,45.32
